N959AW SAZM-SAWC
Flight info
| Callsign | N959AW |
|---|---|
| Flight time | 2h 28m |
| Altitude | 40000 |
| Route | ROGAS1G ROGAS DCT POSTI UW33 VIE UP664 CRV UW48 BOKUK BOKUK2Q |
| Aircraft | CL60/M-SBDE1E2E3FGHIJ1J4J5J7M3RWXYZ/LB1V1D1 |
Departure
| Time | 2026-04-22 17:13 |
|---|---|
| Airport | Ástor Piazzola International Airport (SAZM) |
Arrival
| Time | 2026-04-22 19:42 |
|---|---|
| Airport | El Calafate - Commander Armando Tola International Airport (SAWC) |
| Time | Latitude | Longitude | Altitude | Speed | Heading |
|---|---|---|---|---|---|
| 2026-04-22 16:45 | -37.93462 | -57.57997 | 63 ft | 0 kts | 119° |
| 2026-04-22 17:08 | -37.93463 | -57.57995 | 63 ft | 0 kts | 109° |
| 2026-04-22 17:09 | -37.93452 | -57.57991 | 63 ft | 4 kts | 323° |
| 2026-04-22 17:09 | -37.93425 | -57.58023 | 63 ft | 6 kts | 303° |
| 2026-04-22 17:09 | -37.93390 | -57.58045 | 63 ft | 8 kts | 47° |
| 2026-04-22 17:09 | -37.93386 | -57.57966 | 63 ft | 11 kts | 118° |
| 2026-04-22 17:10 | -37.93432 | -57.57860 | 62 ft | 15 kts | 118° |
| 2026-04-22 17:10 | -37.93485 | -57.57742 | 61 ft | 16 kts | 121° |
| 2026-04-22 17:10 | -37.93548 | -57.57600 | 60 ft | 20 kts | 119° |
| 2026-04-22 17:10 | -37.93622 | -57.57432 | 59 ft | 23 kts | 119° |
| 2026-04-22 17:11 | -37.93706 | -57.57240 | 57 ft | 26 kts | 119° |
| 2026-04-22 17:11 | -37.93799 | -57.57032 | 56 ft | 25 kts | 119° |
| 2026-04-22 17:11 | -37.93873 | -57.56863 | 56 ft | 18 kts | 119° |
| 2026-04-22 17:11 | -37.93935 | -57.56725 | 55 ft | 19 kts | 120° |
| 2026-04-22 17:12 | -37.94003 | -57.56569 | 55 ft | 21 kts | 117° |
| 2026-04-22 17:12 | -37.94029 | -57.56440 | 54 ft | 9 kts | 62° |
| 2026-04-22 17:12 | -37.93990 | -57.56352 | 54 ft | 13 kts | 62° |
| 2026-04-22 17:12 | -37.93937 | -57.56296 | 54 ft | 3 kts | 302° |
| 2026-04-22 17:13 | -37.93917 | -57.56348 | 54 ft | 12 kts | 303° |
| 2026-04-22 17:13 | -37.93767 | -57.56647 | 55 ft | 83 kts | 302° |
| 2026-04-22 17:13 | -37.93294 | -57.57578 | 120 ft | 161 kts | 300° |
| 2026-04-22 17:13 | -37.92615 | -57.58802 | 928 ft | 180 kts | 299° |
| 2026-04-22 17:14 | -37.91934 | -57.60102 | 2065 ft | 186 kts | 295° |
| 2026-04-22 17:14 | -37.91275 | -57.61479 | 3276 ft | 193 kts | 295° |
| 2026-04-22 17:14 | -37.90595 | -57.62900 | 4487 ft | 199 kts | 296° |
| 2026-04-22 17:14 | -37.89902 | -57.64344 | 5732 ft | 202 kts | 296° |
| 2026-04-22 17:15 | -37.89434 | -57.65320 | 6563 ft | 204 kts | 296° |
| 2026-04-22 17:15 | -37.88485 | -57.67292 | 8276 ft | 204 kts | 296° |
| 2026-04-22 17:15 | -37.87759 | -57.68803 | 9507 ft | 205 kts | 296° |
| 2026-04-22 17:15 | -37.87051 | -57.70275 | 10689 ft | 205 kts | 296° |
| 2026-04-22 17:16 | -37.86325 | -57.71786 | 11833 ft | 207 kts | 296° |
| 2026-04-22 17:16 | -37.85590 | -57.73314 | 12930 ft | 209 kts | 297° |
| 2026-04-22 17:16 | -37.84893 | -57.74920 | 13986 ft | 210 kts | 287° |
| 2026-04-22 17:16 | -37.84759 | -57.76706 | 15042 ft | 211 kts | 262° |
| 2026-04-22 17:17 | -37.85335 | -57.78397 | 16019 ft | 220 kts | 245° |
| 2026-04-22 17:17 | -37.86171 | -57.80073 | 16587 ft | 241 kts | 245° |
| 2026-04-22 17:17 | -37.87133 | -57.82043 | 16618 ft | 282 kts | 244° |
| 2026-04-22 17:17 | -37.88222 | -57.84253 | 17013 ft | 306 kts | 244° |
| 2026-04-22 17:18 | -37.89371 | -57.86567 | 17779 ft | 315 kts | 244° |
| 2026-04-22 17:18 | -37.90537 | -57.88916 | 18637 ft | 320 kts | 244° |
| 2026-04-22 17:18 | -37.91692 | -57.91245 | 19463 ft | 325 kts | 244° |
| 2026-04-22 17:18 | -37.92899 | -57.93681 | 20239 ft | 330 kts | 244° |
| 2026-04-22 17:19 | -37.96209 | -57.97915 | 21722 ft | 362 kts | 215° |
| 2026-04-22 17:19 | -38.01131 | -58.00056 | 23011 ft | 383 kts | 205° |
| 2026-04-22 17:20 | -38.06287 | -58.02096 | 24448 ft | 392 kts | 205° |
| 2026-04-22 17:20 | -38.11527 | -58.04174 | 25859 ft | 398 kts | 205° |
| 2026-04-22 17:21 | -38.14166 | -58.05223 | 26486 ft | 402 kts | 205° |
| 2026-04-22 17:21 | -38.19496 | -58.07348 | 27647 ft | 408 kts | 206° |
| 2026-04-22 17:22 | -38.24102 | -58.11022 | 28735 ft | 383 kts | 237° |
| 2026-04-22 17:22 | -38.25694 | -58.13659 | 29222 ft | 381 kts | 241° |
| 2026-04-22 17:22 | -38.28851 | -58.19139 | 30265 ft | 385 kts | 241° |
| 2026-04-22 17:23 | -38.30421 | -58.21858 | 30780 ft | 384 kts | 242° |
| 2026-04-22 17:23 | -38.33536 | -58.27255 | 31978 ft | 377 kts | 242° |
| 2026-04-22 17:23 | -38.35079 | -58.29930 | 32569 ft | 372 kts | 242° |
| 2026-04-22 17:24 | -38.36588 | -58.32550 | 33131 ft | 368 kts | 243° |
| 2026-04-22 17:24 | -38.38084 | -58.35151 | 33645 ft | 365 kts | 243° |
| 2026-04-22 17:24 | -38.39585 | -58.37767 | 33960 ft | 367 kts | 243° |
| 2026-04-22 17:24 | -38.41074 | -58.40369 | 34178 ft | 371 kts | 242° |
| 2026-04-22 17:25 | -38.42611 | -58.43055 | 34399 ft | 374 kts | 242° |
| 2026-04-22 17:25 | -38.44132 | -58.45713 | 34650 ft | 376 kts | 242° |
| 2026-04-22 17:25 | -38.45689 | -58.48434 | 34918 ft | 378 kts | 242° |
| 2026-04-22 17:25 | -38.47232 | -58.51133 | 35174 ft | 380 kts | 242° |
| 2026-04-22 17:26 | -38.50375 | -58.56649 | 35246 ft | 394 kts | 242° |
| 2026-04-22 17:26 | -38.51987 | -58.59478 | 35111 ft | 398 kts | 242° |
| 2026-04-22 17:26 | -38.53598 | -58.62306 | 35211 ft | 402 kts | 242° |
| 2026-04-22 17:27 | -38.55230 | -58.65173 | 35356 ft | 405 kts | 243° |
| 2026-04-22 17:27 | -38.56832 | -58.67985 | 35608 ft | 405 kts | 242° |
| 2026-04-22 17:27 | -38.58473 | -58.70869 | 35902 ft | 405 kts | 242° |
| 2026-04-22 17:27 | -38.60090 | -58.73712 | 36188 ft | 405 kts | 242° |
| 2026-04-22 17:28 | -38.61745 | -58.76629 | 36495 ft | 404 kts | 242° |
| 2026-04-22 17:28 | -38.63392 | -58.79530 | 36795 ft | 403 kts | 242° |
| 2026-04-22 17:28 | -38.65006 | -58.82378 | 37003 ft | 403 kts | 243° |
| 2026-04-22 17:28 | -38.66631 | -58.85247 | 37216 ft | 403 kts | 242° |
| 2026-04-22 17:29 | -38.68273 | -58.88151 | 37393 ft | 404 kts | 242° |
| 2026-04-22 17:29 | -38.69902 | -58.91034 | 37571 ft | 404 kts | 242° |
| 2026-04-22 17:29 | -38.71547 | -58.93947 | 37745 ft | 404 kts | 242° |
| 2026-04-22 17:29 | -38.73180 | -58.96843 | 37930 ft | 404 kts | 242° |
| 2026-04-22 17:30 | -38.74755 | -58.99637 | 38089 ft | 404 kts | 242° |
| 2026-04-22 17:30 | -38.76384 | -59.02530 | 38231 ft | 404 kts | 242° |
| 2026-04-22 17:30 | -38.77999 | -59.05400 | 38452 ft | 404 kts | 242° |
| 2026-04-22 17:30 | -38.79613 | -59.08273 | 38611 ft | 404 kts | 242° |
| 2026-04-22 17:31 | -38.81208 | -59.11115 | 38761 ft | 405 kts | 242° |
| 2026-04-22 17:31 | -38.82814 | -59.13976 | 38897 ft | 406 kts | 242° |
| 2026-04-22 17:31 | -38.84422 | -59.16846 | 39025 ft | 407 kts | 242° |
| 2026-04-22 17:31 | -38.86016 | -59.19691 | 39161 ft | 407 kts | 242° |
| 2026-04-22 17:32 | -38.87581 | -59.22486 | 39333 ft | 406 kts | 243° |
| 2026-04-22 17:32 | -38.89212 | -59.25401 | 39451 ft | 407 kts | 242° |
| 2026-04-22 17:32 | -38.90751 | -59.28154 | 39592 ft | 407 kts | 242° |
| 2026-04-22 17:32 | -38.92389 | -59.31088 | 39741 ft | 407 kts | 242° |
| 2026-04-22 17:33 | -38.95608 | -59.36860 | 39970 ft | 407 kts | 242° |
| 2026-04-22 17:33 | -38.98915 | -59.42804 | 39979 ft | 410 kts | 242° |
| 2026-04-22 17:34 | -39.02195 | -59.48707 | 39979 ft | 410 kts | 242° |
| 2026-04-22 17:34 | -39.05505 | -59.54674 | 39978 ft | 410 kts | 242° |
| 2026-04-22 17:35 | -39.08773 | -59.60577 | 39977 ft | 411 kts | 243° |
| 2026-04-22 17:35 | -39.12045 | -59.66503 | 39982 ft | 415 kts | 243° |
| 2026-04-22 17:36 | -39.15403 | -59.72595 | 39979 ft | 419 kts | 243° |
| 2026-04-22 17:36 | -39.18710 | -59.78603 | 39979 ft | 422 kts | 243° |
| 2026-04-22 17:37 | -39.22004 | -59.84599 | 39975 ft | 424 kts | 243° |
| 2026-04-22 17:37 | -39.25346 | -59.90694 | 39979 ft | 426 kts | 243° |
| 2026-04-22 17:38 | -39.28708 | -59.96836 | 39979 ft | 428 kts | 243° |
| 2026-04-22 17:38 | -39.32093 | -60.03032 | 39982 ft | 430 kts | 243° |
| 2026-04-22 17:39 | -39.35508 | -60.09295 | 39993 ft | 431 kts | 243° |
| 2026-04-22 17:40 | -39.40639 | -60.18729 | 39969 ft | 434 kts | 243° |
| 2026-04-22 17:40 | -39.43995 | -60.24912 | 39984 ft | 435 kts | 243° |
| 2026-04-22 17:41 | -39.47368 | -60.31141 | 39971 ft | 436 kts | 243° |
| 2026-04-22 17:41 | -39.50699 | -60.37304 | 39956 ft | 436 kts | 243° |
| 2026-04-22 17:42 | -39.54086 | -60.43582 | 39958 ft | 436 kts | 243° |
| 2026-04-22 17:42 | -39.57534 | -60.49987 | 39949 ft | 436 kts | 243° |
| 2026-04-22 17:43 | -39.60955 | -60.56353 | 39953 ft | 435 kts | 244° |
| 2026-04-22 17:43 | -39.64379 | -60.62740 | 39955 ft | 436 kts | 243° |
| 2026-04-22 17:44 | -39.67818 | -60.69168 | 39961 ft | 438 kts | 244° |
| 2026-04-22 17:44 | -39.71247 | -60.75589 | 39958 ft | 438 kts | 244° |
| 2026-04-22 17:45 | -39.74710 | -60.82086 | 39943 ft | 438 kts | 244° |
| 2026-04-22 17:45 | -39.78169 | -60.88587 | 39950 ft | 437 kts | 244° |
| 2026-04-22 17:46 | -39.81596 | -60.95044 | 39958 ft | 437 kts | 244° |
| 2026-04-22 17:46 | -39.85035 | -61.01538 | 39959 ft | 438 kts | 244° |
| 2026-04-22 17:47 | -39.88473 | -61.08042 | 39950 ft | 438 kts | 244° |
| 2026-04-22 17:47 | -39.91911 | -61.14560 | 39941 ft | 439 kts | 244° |
| 2026-04-22 17:48 | -39.94759 | -61.19968 | 39946 ft | 439 kts | 244° |
| 2026-04-22 17:48 | -39.98705 | -61.27476 | 39946 ft | 438 kts | 244° |
| 2026-04-22 17:49 | -40.02124 | -61.33998 | 39945 ft | 438 kts | 244° |
| 2026-04-22 17:49 | -40.05524 | -61.40497 | 39946 ft | 439 kts | 244° |
| 2026-04-22 17:50 | -40.08911 | -61.46984 | 39941 ft | 439 kts | 244° |
| 2026-04-22 17:50 | -40.12294 | -61.53486 | 39940 ft | 439 kts | 244° |
| 2026-04-22 17:51 | -40.15662 | -61.59974 | 39936 ft | 440 kts | 243° |
| 2026-04-22 17:51 | -40.19098 | -61.66606 | 39940 ft | 440 kts | 244° |
| 2026-04-22 17:52 | -40.22474 | -61.73134 | 39943 ft | 440 kts | 244° |
| 2026-04-22 17:52 | -40.25824 | -61.79627 | 39938 ft | 440 kts | 244° |
| 2026-04-22 17:53 | -40.29208 | -61.86198 | 39938 ft | 440 kts | 244° |
| 2026-04-22 17:53 | -40.32599 | -61.92798 | 39943 ft | 440 kts | 244° |
| 2026-04-22 17:54 | -40.35975 | -61.99384 | 39943 ft | 440 kts | 244° |
| 2026-04-22 17:54 | -40.39360 | -62.05998 | 39953 ft | 440 kts | 244° |
| 2026-04-22 17:55 | -40.42749 | -62.12635 | 39944 ft | 440 kts | 244° |
| 2026-04-22 17:55 | -40.46179 | -62.19369 | 39938 ft | 441 kts | 243° |
| 2026-04-22 17:56 | -40.49521 | -62.25942 | 39938 ft | 441 kts | 243° |
| 2026-04-22 17:56 | -40.52915 | -62.32631 | 39947 ft | 440 kts | 243° |
| 2026-04-22 17:57 | -40.56306 | -62.39331 | 39949 ft | 440 kts | 243° |
| 2026-04-22 17:57 | -40.59670 | -62.45991 | 39950 ft | 440 kts | 243° |
| 2026-04-22 17:58 | -40.63042 | -62.52683 | 39944 ft | 441 kts | 243° |
| 2026-04-22 17:58 | -40.66415 | -62.59389 | 39953 ft | 440 kts | 243° |
| 2026-04-22 17:59 | -40.69778 | -62.66090 | 39943 ft | 440 kts | 243° |
| 2026-04-22 17:59 | -40.73117 | -62.72758 | 39946 ft | 440 kts | 243° |
| 2026-04-22 18:00 | -40.75914 | -62.78354 | 39963 ft | 440 kts | 243° |
| 2026-04-22 18:00 | -40.79793 | -62.86132 | 39961 ft | 440 kts | 243° |
| 2026-04-22 18:01 | -40.83159 | -62.92897 | 39957 ft | 440 kts | 243° |
| 2026-04-22 18:01 | -40.86834 | -62.99365 | 39952 ft | 448 kts | 233° |
| 2026-04-22 18:02 | -40.91646 | -63.04632 | 39958 ft | 460 kts | 221° |
| 2026-04-22 18:02 | -40.96849 | -63.09415 | 39966 ft | 460 kts | 221° |
| 2026-04-22 18:03 | -41.02118 | -63.14275 | 39970 ft | 459 kts | 222° |
| 2026-04-22 18:03 | -41.07331 | -63.19096 | 39974 ft | 458 kts | 222° |
| 2026-04-22 18:04 | -41.12436 | -63.23827 | 39963 ft | 457 kts | 221° |
| 2026-04-22 18:04 | -41.17607 | -63.28629 | 39963 ft | 457 kts | 221° |
| 2026-04-22 18:05 | -41.22752 | -63.33417 | 39964 ft | 458 kts | 222° |
| 2026-04-22 18:05 | -41.27939 | -63.38253 | 39969 ft | 457 kts | 222° |
| 2026-04-22 18:06 | -41.33094 | -63.43070 | 39961 ft | 457 kts | 222° |
| 2026-04-22 18:06 | -41.38280 | -63.47926 | 39961 ft | 458 kts | 222° |
| 2026-04-22 18:07 | -41.43480 | -63.52804 | 39944 ft | 459 kts | 221° |
| 2026-04-22 18:07 | -41.48656 | -63.57670 | 39936 ft | 459 kts | 221° |
| 2026-04-22 18:08 | -41.53886 | -63.62596 | 39938 ft | 460 kts | 221° |
| 2026-04-22 18:08 | -41.59056 | -63.67475 | 39939 ft | 460 kts | 222° |
| 2026-04-22 18:09 | -41.64267 | -63.72402 | 39935 ft | 460 kts | 222° |
| 2026-04-22 18:09 | -41.69464 | -63.77326 | 39938 ft | 460 kts | 222° |
| 2026-04-22 18:10 | -41.74589 | -63.82191 | 39937 ft | 459 kts | 222° |
| 2026-04-22 18:10 | -41.79720 | -63.87072 | 39932 ft | 458 kts | 222° |
| 2026-04-22 18:11 | -41.84935 | -63.92043 | 39930 ft | 458 kts | 221° |
| 2026-04-22 18:11 | -41.90033 | -63.96914 | 39934 ft | 458 kts | 221° |
| 2026-04-22 18:12 | -41.95184 | -64.01845 | 39935 ft | 458 kts | 222° |
| 2026-04-22 18:12 | -41.99444 | -64.05930 | 39932 ft | 458 kts | 221° |
| 2026-04-22 18:13 | -42.05425 | -64.11678 | 39935 ft | 459 kts | 221° |
| 2026-04-22 18:13 | -42.10558 | -64.16621 | 39947 ft | 459 kts | 221° |
| 2026-04-22 18:14 | -42.15690 | -64.21571 | 39942 ft | 458 kts | 221° |
| 2026-04-22 18:14 | -42.20815 | -64.26524 | 39935 ft | 457 kts | 221° |
| 2026-04-22 18:15 | -42.25795 | -64.31351 | 39933 ft | 457 kts | 221° |
| 2026-04-22 18:15 | -42.30736 | -64.36148 | 39938 ft | 456 kts | 221° |
| 2026-04-22 18:16 | -42.35801 | -64.41075 | 39937 ft | 457 kts | 221° |
| 2026-04-22 18:16 | -42.40910 | -64.46053 | 39931 ft | 457 kts | 221° |
| 2026-04-22 18:17 | -42.46053 | -64.51076 | 39927 ft | 456 kts | 221° |
| 2026-04-22 18:17 | -42.51140 | -64.56054 | 39922 ft | 456 kts | 220° |
| 2026-04-22 18:18 | -42.56261 | -64.61076 | 39932 ft | 455 kts | 220° |
| 2026-04-22 18:18 | -42.61346 | -64.66074 | 39918 ft | 456 kts | 221° |
| 2026-04-22 18:19 | -42.66421 | -64.71071 | 39920 ft | 454 kts | 221° |
| 2026-04-22 18:19 | -42.71479 | -64.76062 | 39926 ft | 454 kts | 221° |
| 2026-04-22 18:20 | -42.76442 | -64.80969 | 39926 ft | 453 kts | 221° |
| 2026-04-22 18:20 | -42.81549 | -64.86029 | 39921 ft | 452 kts | 221° |
| 2026-04-22 18:21 | -42.86613 | -64.91058 | 39923 ft | 452 kts | 221° |
| 2026-04-22 18:21 | -42.91629 | -64.96049 | 39923 ft | 451 kts | 221° |
| 2026-04-22 18:22 | -42.96649 | -65.01053 | 39912 ft | 450 kts | 221° |
| 2026-04-22 18:22 | -43.01143 | -65.05544 | 39922 ft | 451 kts | 220° |
| 2026-04-22 18:23 | -43.06065 | -65.10469 | 39935 ft | 451 kts | 220° |
| 2026-04-22 18:23 | -43.10037 | -65.14452 | 39899 ft | 450 kts | 220° |
| 2026-04-22 18:25 | -43.31312 | -65.33443 | 39917 ft | 452 kts | 214° |
| 2026-04-22 18:26 | -43.39481 | -65.39885 | 39901 ft | 451 kts | 214° |
| 2026-04-22 18:26 | -43.44899 | -65.44170 | 39925 ft | 451 kts | 214° |
| 2026-04-22 18:27 | -43.50339 | -65.48483 | 39887 ft | 452 kts | 214° |
| 2026-04-22 18:27 | -43.55739 | -65.52772 | 39895 ft | 450 kts | 213° |
| 2026-04-22 18:28 | -43.61133 | -65.57066 | 39901 ft | 449 kts | 213° |
| 2026-04-22 18:28 | -43.66524 | -65.61368 | 39887 ft | 449 kts | 214° |
| 2026-04-22 18:29 | -43.71907 | -65.65672 | 39883 ft | 449 kts | 214° |
| 2026-04-22 18:29 | -43.77231 | -65.69939 | 39889 ft | 448 kts | 214° |
| 2026-04-22 18:30 | -43.85239 | -65.76374 | 39892 ft | 448 kts | 214° |
| 2026-04-22 18:31 | -43.90623 | -65.80711 | 39882 ft | 448 kts | 214° |
| 2026-04-22 18:31 | -43.95972 | -65.85029 | 39884 ft | 447 kts | 213° |
| 2026-04-22 18:32 | -44.01304 | -65.89342 | 39897 ft | 446 kts | 214° |
| 2026-04-22 18:32 | -44.06675 | -65.93699 | 39900 ft | 446 kts | 214° |
| 2026-04-22 18:33 | -44.11999 | -65.98027 | 39886 ft | 446 kts | 214° |
| 2026-04-22 18:33 | -44.17304 | -66.02348 | 39889 ft | 445 kts | 214° |
| 2026-04-22 18:34 | -44.22623 | -66.06690 | 39881 ft | 446 kts | 214° |
| 2026-04-22 18:34 | -44.27918 | -66.11020 | 39897 ft | 444 kts | 214° |
| 2026-04-22 18:35 | -44.33241 | -66.15383 | 39889 ft | 444 kts | 213° |
| 2026-04-22 18:35 | -44.38553 | -66.19748 | 39885 ft | 443 kts | 214° |
| 2026-04-22 18:36 | -44.43704 | -66.23988 | 39871 ft | 444 kts | 213° |
| 2026-04-22 18:36 | -44.48983 | -66.28342 | 39899 ft | 442 kts | 214° |
| 2026-04-22 18:37 | -44.54305 | -66.32742 | 39881 ft | 443 kts | 214° |
| 2026-04-22 18:37 | -44.59578 | -66.37111 | 39854 ft | 444 kts | 214° |
| 2026-04-22 18:38 | -44.64853 | -66.41491 | 39866 ft | 443 kts | 213° |
| 2026-04-22 18:38 | -44.70128 | -66.45879 | 39873 ft | 441 kts | 213° |
| 2026-04-22 18:39 | -44.77988 | -66.52437 | 39856 ft | 441 kts | 213° |
| 2026-04-22 18:39 | -44.83255 | -66.56842 | 39862 ft | 441 kts | 213° |
| 2026-04-22 18:40 | -44.88519 | -66.61256 | 39851 ft | 441 kts | 213° |
| 2026-04-22 18:40 | -44.93744 | -66.65645 | 39846 ft | 440 kts | 214° |
| 2026-04-22 18:41 | -44.98940 | -66.70020 | 39846 ft | 441 kts | 214° |
| 2026-04-22 18:41 | -45.04202 | -66.74458 | 39847 ft | 440 kts | 214° |
| 2026-04-22 18:42 | -45.09448 | -66.78893 | 39864 ft | 441 kts | 214° |
| 2026-04-22 18:42 | -45.14703 | -66.83344 | 39841 ft | 440 kts | 214° |
| 2026-04-22 18:43 | -45.19929 | -66.87781 | 39835 ft | 440 kts | 214° |
| 2026-04-22 18:43 | -45.25113 | -66.92191 | 39839 ft | 440 kts | 214° |
| 2026-04-22 18:44 | -45.30283 | -66.96600 | 39825 ft | 440 kts | 214° |
| 2026-04-22 18:44 | -45.35489 | -67.01047 | 39837 ft | 438 kts | 214° |
| 2026-04-22 18:45 | -45.40670 | -67.05484 | 39829 ft | 438 kts | 214° |
| 2026-04-22 18:45 | -45.45881 | -67.09956 | 39834 ft | 439 kts | 214° |
| 2026-04-22 18:46 | -45.51090 | -67.14436 | 39832 ft | 439 kts | 214° |
| 2026-04-22 18:46 | -45.56253 | -67.18887 | 39820 ft | 440 kts | 214° |
| 2026-04-22 18:47 | -45.61425 | -67.23354 | 39834 ft | 440 kts | 214° |
| 2026-04-22 18:47 | -45.66533 | -67.27776 | 39836 ft | 440 kts | 214° |
| 2026-04-22 18:48 | -45.71699 | -67.32258 | 39826 ft | 440 kts | 214° |
| 2026-04-22 18:48 | -45.76883 | -67.36769 | 39827 ft | 440 kts | 215° |
| 2026-04-22 18:49 | -45.81915 | -67.41449 | 39838 ft | 439 kts | 216° |
| 2026-04-22 18:49 | -45.86987 | -67.46221 | 39823 ft | 438 kts | 216° |
| 2026-04-22 18:50 | -45.92057 | -67.51002 | 39826 ft | 438 kts | 216° |
| 2026-04-22 18:50 | -45.97110 | -67.55777 | 39812 ft | 438 kts | 217° |
| 2026-04-22 18:51 | -46.02146 | -67.60546 | 39821 ft | 436 kts | 216° |
| 2026-04-22 18:51 | -46.07144 | -67.65290 | 39808 ft | 437 kts | 217° |
| 2026-04-22 18:52 | -46.11837 | -67.69755 | 39794 ft | 437 kts | 217° |
| 2026-04-22 18:52 | -46.16936 | -67.74614 | 39808 ft | 436 kts | 217° |
| 2026-04-22 18:53 | -46.21921 | -67.79376 | 39798 ft | 436 kts | 217° |
| 2026-04-22 18:53 | -46.27010 | -67.84248 | 39784 ft | 436 kts | 217° |
| 2026-04-22 18:54 | -46.32015 | -67.89050 | 39769 ft | 436 kts | 218° |
| 2026-04-22 18:54 | -46.37064 | -67.93906 | 39768 ft | 436 kts | 217° |
| 2026-04-22 18:55 | -46.42052 | -67.98714 | 39767 ft | 436 kts | 217° |
| 2026-04-22 18:55 | -46.47086 | -68.03576 | 39776 ft | 435 kts | 218° |
| 2026-04-22 18:56 | -46.52120 | -68.08450 | 39775 ft | 435 kts | 218° |
| 2026-04-22 18:56 | -46.57077 | -68.13259 | 39775 ft | 435 kts | 218° |
| 2026-04-22 18:57 | -46.62100 | -68.18145 | 39773 ft | 435 kts | 218° |
| 2026-04-22 18:57 | -46.67004 | -68.22924 | 39768 ft | 436 kts | 218° |
| 2026-04-22 18:58 | -46.72028 | -68.27832 | 39763 ft | 436 kts | 218° |
| 2026-04-22 18:58 | -46.77049 | -68.32748 | 39764 ft | 437 kts | 218° |
| 2026-04-22 18:59 | -46.82114 | -68.37718 | 39759 ft | 437 kts | 218° |
| 2026-04-22 18:59 | -46.87141 | -68.42664 | 39747 ft | 437 kts | 218° |
| 2026-04-22 19:00 | -46.92079 | -68.47530 | 39745 ft | 437 kts | 218° |
| 2026-04-22 19:00 | -46.97097 | -68.52488 | 39739 ft | 437 kts | 218° |
| 2026-04-22 19:01 | -47.02105 | -68.57449 | 39738 ft | 437 kts | 218° |
| 2026-04-22 19:01 | -47.07129 | -68.62436 | 39742 ft | 438 kts | 218° |
| 2026-04-22 19:02 | -47.12075 | -68.67357 | 39737 ft | 438 kts | 219° |
| 2026-04-22 19:02 | -47.17003 | -68.72271 | 39731 ft | 437 kts | 219° |
| 2026-04-22 19:03 | -47.21877 | -68.77142 | 39728 ft | 436 kts | 219° |
| 2026-04-22 19:03 | -47.26773 | -68.82045 | 39718 ft | 435 kts | 219° |
| 2026-04-22 19:04 | -47.31770 | -68.87064 | 39714 ft | 435 kts | 219° |
| 2026-04-22 19:04 | -47.36731 | -68.92055 | 39708 ft | 436 kts | 219° |
| 2026-04-22 19:05 | -47.41683 | -68.97051 | 39694 ft | 437 kts | 219° |
| 2026-04-22 19:05 | -47.46689 | -69.02113 | 39694 ft | 437 kts | 219° |
| 2026-04-22 19:06 | -47.51674 | -69.07164 | 39693 ft | 437 kts | 219° |
| 2026-04-22 19:07 | -47.59180 | -69.14792 | 39686 ft | 435 kts | 219° |
| 2026-04-22 19:07 | -47.64086 | -69.19793 | 39688 ft | 435 kts | 220° |
| 2026-04-22 19:08 | -47.69046 | -69.24860 | 39681 ft | 435 kts | 220° |
| 2026-04-22 19:08 | -47.73994 | -69.29928 | 39692 ft | 434 kts | 219° |
| 2026-04-22 19:09 | -47.78880 | -69.34944 | 39678 ft | 433 kts | 220° |
| 2026-04-22 19:09 | -47.83821 | -69.40028 | 39671 ft | 433 kts | 220° |
| 2026-04-22 19:10 | -47.88764 | -69.45126 | 39678 ft | 433 kts | 220° |
| 2026-04-22 19:10 | -47.93698 | -69.50227 | 39678 ft | 432 kts | 220° |
| 2026-04-22 19:11 | -47.98638 | -69.55346 | 39670 ft | 431 kts | 220° |
| 2026-04-22 19:11 | -48.03537 | -69.60435 | 39669 ft | 431 kts | 220° |
| 2026-04-22 19:12 | -48.08417 | -69.65515 | 39655 ft | 431 kts | 221° |
| 2026-04-22 19:12 | -48.13267 | -69.70577 | 39652 ft | 430 kts | 221° |
| 2026-04-22 19:13 | -48.18163 | -69.75698 | 39641 ft | 429 kts | 221° |
| 2026-04-22 19:13 | -48.22966 | -69.80735 | 39646 ft | 428 kts | 222° |
| 2026-04-22 19:14 | -48.27793 | -69.85809 | 39615 ft | 428 kts | 222° |
| 2026-04-22 19:14 | -48.32642 | -69.90917 | 39610 ft | 427 kts | 222° |
| 2026-04-22 19:15 | -48.37455 | -69.96000 | 39618 ft | 425 kts | 222° |
| 2026-04-22 19:15 | -48.42282 | -70.01111 | 39632 ft | 427 kts | 222° |
| 2026-04-22 19:16 | -48.46998 | -70.06087 | 39610 ft | 428 kts | 221° |
| 2026-04-22 19:16 | -48.51866 | -70.11189 | 39618 ft | 428 kts | 221° |
| 2026-04-22 19:17 | -48.56732 | -70.16302 | 39611 ft | 428 kts | 222° |
| 2026-04-22 19:17 | -48.61565 | -70.21394 | 39505 ft | 431 kts | 221° |
| 2026-04-22 19:17 | -48.64024 | -70.23993 | 38960 ft | 435 kts | 221° |
| 2026-04-22 19:18 | -48.66463 | -70.26568 | 38414 ft | 431 kts | 221° |
| 2026-04-22 19:18 | -48.68896 | -70.29137 | 37846 ft | 425 kts | 221° |
| 2026-04-22 19:18 | -48.71304 | -70.31684 | 37338 ft | 418 kts | 221° |
| 2026-04-22 19:18 | -48.73619 | -70.34137 | 36785 ft | 414 kts | 221° |
| 2026-04-22 19:19 | -48.75958 | -70.36621 | 36248 ft | 414 kts | 221° |
| 2026-04-22 19:19 | -48.78296 | -70.39107 | 35695 ft | 414 kts | 221° |
| 2026-04-22 19:19 | -48.80631 | -70.41593 | 35140 ft | 414 kts | 221° |
| 2026-04-22 19:19 | -48.82953 | -70.44069 | 34557 ft | 415 kts | 220° |
| 2026-04-22 19:20 | -48.85309 | -70.46583 | 34041 ft | 417 kts | 221° |
| 2026-04-22 19:20 | -48.87691 | -70.49129 | 33459 ft | 419 kts | 220° |
| 2026-04-22 19:20 | -48.90048 | -70.51651 | 32929 ft | 421 kts | 221° |
| 2026-04-22 19:20 | -48.92443 | -70.54216 | 32334 ft | 422 kts | 220° |
| 2026-04-22 19:21 | -48.94843 | -70.56789 | 31783 ft | 424 kts | 220° |
| 2026-04-22 19:21 | -48.97246 | -70.59369 | 31228 ft | 426 kts | 220° |
| 2026-04-22 19:21 | -48.99657 | -70.61960 | 30640 ft | 428 kts | 220° |
| 2026-04-22 19:21 | -49.02087 | -70.64574 | 30086 ft | 430 kts | 220° |
| 2026-04-22 19:22 | -49.04492 | -70.67165 | 29497 ft | 431 kts | 221° |
| 2026-04-22 19:22 | -49.06926 | -70.69790 | 28940 ft | 434 kts | 221° |
| 2026-04-22 19:22 | -49.09141 | -70.72181 | 28429 ft | 435 kts | 220° |
| 2026-04-22 19:22 | -49.11723 | -70.74972 | 27814 ft | 438 kts | 220° |
| 2026-04-22 19:23 | -49.14139 | -70.77586 | 27251 ft | 440 kts | 220° |
| 2026-04-22 19:23 | -49.16639 | -70.80296 | 26655 ft | 441 kts | 220° |
| 2026-04-22 19:23 | -49.18873 | -70.82720 | 26131 ft | 443 kts | 220° |
| 2026-04-22 19:23 | -49.21537 | -70.85613 | 25491 ft | 443 kts | 220° |
| 2026-04-22 19:24 | -49.23721 | -70.87986 | 24999 ft | 444 kts | 220° |
| 2026-04-22 19:24 | -49.26448 | -70.90957 | 24354 ft | 444 kts | 220° |
| 2026-04-22 19:24 | -49.28919 | -70.93645 | 23796 ft | 431 kts | 220° |
| 2026-04-22 19:24 | -49.31314 | -70.96255 | 23184 ft | 421 kts | 220° |
| 2026-04-22 19:25 | -49.33642 | -70.98795 | 22665 ft | 413 kts | 220° |
| 2026-04-22 19:25 | -49.35982 | -71.01354 | 22116 ft | 409 kts | 220° |
| 2026-04-22 19:25 | -49.38268 | -71.03859 | 21572 ft | 405 kts | 220° |
| 2026-04-22 19:25 | -49.40563 | -71.06376 | 21026 ft | 402 kts | 221° |
| 2026-04-22 19:26 | -49.42804 | -71.08836 | 20505 ft | 400 kts | 221° |
| 2026-04-22 19:26 | -49.45035 | -71.11289 | 19979 ft | 397 kts | 221° |
| 2026-04-22 19:26 | -49.47233 | -71.13708 | 19469 ft | 394 kts | 221° |
| 2026-04-22 19:26 | -49.49442 | -71.16142 | 18926 ft | 392 kts | 221° |
| 2026-04-22 19:27 | -49.51655 | -71.18584 | 18396 ft | 388 kts | 221° |
| 2026-04-22 19:27 | -49.53825 | -71.20981 | 17892 ft | 385 kts | 221° |
| 2026-04-22 19:27 | -49.55986 | -71.23370 | 17376 ft | 382 kts | 221° |
| 2026-04-22 19:27 | -49.58097 | -71.25707 | 16877 ft | 379 kts | 221° |
| 2026-04-22 19:28 | -49.60225 | -71.28065 | 16392 ft | 375 kts | 222° |
| 2026-04-22 19:28 | -49.62413 | -71.30203 | 15895 ft | 378 kts | 214° |
| 2026-04-22 19:28 | -49.64775 | -71.32022 | 15385 ft | 375 kts | 213° |
| 2026-04-22 19:28 | -49.67057 | -71.33770 | 14891 ft | 371 kts | 213° |
| 2026-04-22 19:29 | -49.69344 | -71.35529 | 14396 ft | 366 kts | 213° |
| 2026-04-22 19:29 | -49.71584 | -71.37247 | 13917 ft | 353 kts | 214° |
| 2026-04-22 19:29 | -49.73753 | -71.38913 | 13452 ft | 341 kts | 215° |
| 2026-04-22 19:29 | -49.75817 | -71.40501 | 13018 ft | 330 kts | 215° |
| 2026-04-22 19:30 | -49.77184 | -71.41554 | 12715 ft | 323 kts | 215° |
| 2026-04-22 19:30 | -49.79808 | -71.43579 | 12145 ft | 311 kts | 216° |
| 2026-04-22 19:30 | -49.81712 | -71.45051 | 11743 ft | 302 kts | 217° |
| 2026-04-22 19:30 | -49.83537 | -71.46464 | 11345 ft | 293 kts | 217° |
| 2026-04-22 19:31 | -49.85335 | -71.47857 | 10966 ft | 286 kts | 218° |
| 2026-04-22 19:31 | -49.87038 | -71.49180 | 10590 ft | 279 kts | 218° |
| 2026-04-22 19:31 | -49.88805 | -71.50555 | 10207 ft | 272 kts | 218° |
| 2026-04-22 19:31 | -49.90468 | -71.51849 | 9858 ft | 265 kts | 220° |
| 2026-04-22 19:32 | -49.92099 | -71.53120 | 9503 ft | 260 kts | 219° |
| 2026-04-22 19:32 | -49.93704 | -71.54372 | 9156 ft | 257 kts | 219° |
| 2026-04-22 19:32 | -49.95308 | -71.55636 | 8800 ft | 261 kts | 219° |
| 2026-04-22 19:32 | -49.96941 | -71.56924 | 8440 ft | 265 kts | 218° |
| 2026-04-22 19:33 | -49.98566 | -71.58202 | 8100 ft | 266 kts | 218° |
| 2026-04-22 19:33 | -50.00218 | -71.59499 | 7747 ft | 266 kts | 217° |
| 2026-04-22 19:33 | -50.01878 | -71.60803 | 7391 ft | 267 kts | 217° |
| 2026-04-22 19:33 | -50.03536 | -71.62105 | 7044 ft | 267 kts | 217° |
| 2026-04-22 19:34 | -50.05204 | -71.63415 | 6762 ft | 266 kts | 216° |
| 2026-04-22 19:34 | -50.06843 | -71.64704 | 6524 ft | 269 kts | 216° |
| 2026-04-22 19:34 | -50.08513 | -71.66019 | 6293 ft | 264 kts | 216° |
| 2026-04-22 19:34 | -50.10106 | -71.67259 | 6170 ft | 251 kts | 217° |
| 2026-04-22 19:35 | -50.11546 | -71.68391 | 5827 ft | 247 kts | 216° |
| 2026-04-22 19:35 | -50.13108 | -71.69619 | 5550 ft | 239 kts | 215° |
| 2026-04-22 19:35 | -50.14585 | -71.70782 | 5253 ft | 235 kts | 216° |
| 2026-04-22 19:35 | -50.15996 | -71.71896 | 4933 ft | 233 kts | 216° |
| 2026-04-22 19:36 | -50.17529 | -71.72823 | 4609 ft | 237 kts | 202° |
| 2026-04-22 19:36 | -50.19039 | -71.73438 | 4317 ft | 236 kts | 202° |
| 2026-04-22 19:36 | -50.20629 | -71.74086 | 4006 ft | 232 kts | 202° |
| 2026-04-22 19:36 | -50.22142 | -71.74702 | 3712 ft | 221 kts | 202° |
| 2026-04-22 19:37 | -50.23611 | -71.75302 | 3410 ft | 211 kts | 201° |
| 2026-04-22 19:37 | -50.24996 | -71.75926 | 3137 ft | 203 kts | 209° |
| 2026-04-22 19:37 | -50.26034 | -71.77235 | 2905 ft | 183 kts | 246° |
| 2026-04-22 19:37 | -50.26413 | -71.79062 | 2893 ft | 176 kts | 266° |
| 2026-04-22 19:38 | -50.26555 | -71.80946 | 2892 ft | 174 kts | 270° |
| 2026-04-22 19:38 | -50.26655 | -71.82844 | 2901 ft | 177 kts | 271° |
| 2026-04-22 19:38 | -50.26764 | -71.84755 | 2900 ft | 177 kts | 270° |
| 2026-04-22 19:38 | -50.26853 | -71.86195 | 2808 ft | 178 kts | 270° |
| 2026-04-22 19:39 | -50.26997 | -71.88431 | 2517 ft | 170 kts | 268° |
| 2026-04-22 19:39 | -50.27109 | -71.90205 | 2320 ft | 145 kts | 269° |
| 2026-04-22 19:39 | -50.27202 | -71.91647 | 2165 ft | 123 kts | 268° |
| 2026-04-22 19:39 | -50.27255 | -71.92464 | 2095 ft | 113 kts | 269° |
| 2026-04-22 19:40 | -50.27351 | -71.94112 | 1854 ft | 112 kts | 268° |
| 2026-04-22 19:40 | -50.27418 | -71.95309 | 1707 ft | 110 kts | 267° |
| 2026-04-22 19:40 | -50.27486 | -71.96487 | 1561 ft | 108 kts | 267° |
| 2026-04-22 19:40 | -50.27555 | -71.97661 | 1410 ft | 108 kts | 266° |
| 2026-04-22 19:41 | -50.27628 | -71.98806 | 1289 ft | 109 kts | 266° |
| 2026-04-22 19:41 | -50.27696 | -71.99979 | 1137 ft | 109 kts | 265° |
| 2026-04-22 19:41 | -50.27775 | -72.01174 | 976 ft | 109 kts | 265° |
| 2026-04-22 19:41 | -50.27838 | -72.02382 | 835 ft | 116 kts | 264° |
| 2026-04-22 19:42 | -50.27920 | -72.03593 | 682 ft | 110 kts | 265° |
| 2026-04-22 19:42 | -50.27985 | -72.04649 | 652 ft | 81 kts | 265° |
| 2026-04-22 19:42 | -50.28021 | -72.05249 | 655 ft | 29 kts | 264° |
| 2026-04-22 19:42 | -50.28038 | -72.05411 | 656 ft | 11 kts | 227° |
| 2026-04-22 19:43 | -50.28189 | -72.05402 | 657 ft | 5 kts | 174° |
| 2026-04-22 19:43 | -50.28237 | -72.05395 | 657 ft | 1 kts | 169° |
| 2026-04-22 19:43 | -50.28252 | -72.05404 | 657 ft | 4 kts | 238° |
| 2026-04-22 19:44 | -50.28267 | -72.05463 | 658 ft | 7 kts | 265° |
| 2026-04-22 19:44 | -50.28272 | -72.05552 | 658 ft | 4 kts | 265° |
| 2026-04-22 19:44 | -50.28273 | -72.05570 | 659 ft | 1 kts | 265° |
| 2026-04-22 19:44 | -50.28283 | -72.05584 | 659 ft | 3 kts | 173° |
| 2026-04-22 19:45 | -50.28321 | -72.05572 | 659 ft | 6 kts | 160° |
| 2026-04-22 19:45 | -50.28354 | -72.05563 | 660 ft | 0 kts | 175° |
| 2026-04-22 19:45 | -50.28361 | -72.05561 | 660 ft | 0 kts | 174° |